createdAt,value
2018-05-06T00:02:14.444Z,11.33
2018-05-06T00:04:42.842Z,11.17
2018-05-06T00:07:12.001Z,11.09
2018-05-06T00:09:40.435Z,11.11
2018-05-06T00:12:08.853Z,11.04
2018-05-06T00:14:37.230Z,10.92
2018-05-06T00:17:05.650Z,10.81
2018-05-06T00:19:34.083Z,10.69
2018-05-06T00:22:02.478Z,10.59
2018-05-06T00:24:30.834Z,10.49
2018-05-06T00:27:00.018Z,10.43
2018-05-06T00:29:28.410Z,10.50
2018-05-06T00:31:56.810Z,10.47
2018-05-06T00:34:26.028Z,10.47
2018-05-06T00:36:54.448Z,10.37
2018-05-06T00:39:22.894Z,10.23
2018-05-06T00:41:52.038Z,10.15
2018-05-06T00:44:20.544Z,10.09
2018-05-06T00:46:48.915Z,10.08
2018-05-06T00:49:17.298Z,10.16
2018-05-06T00:51:45.696Z,10.09
2018-05-06T00:54:31.633Z,9.99
2018-05-06T00:57:00.006Z,9.88
2018-05-06T00:59:28.565Z,9.81
2018-05-06T01:01:57.704Z,9.80
2018-05-06T01:04:26.076Z,9.82
2018-05-06T01:06:54.473Z,9.80
2018-05-06T01:09:22.894Z,9.92
2018-05-06T01:11:51.297Z,9.82
2018-05-06T01:14:20.489Z,9.77
2018-05-06T01:16:49.650Z,9.72
2018-05-06T01:19:18.059Z,9.68
2018-05-06T01:21:46.416Z,9.64
2018-05-06T01:24:14.790Z,9.65
2018-05-06T01:26:43.166Z,9.58
2018-05-06T01:29:11.549Z,9.53
2018-05-06T01:31:39.937Z,9.47
2018-05-06T01:34:08.306Z,9.42
2018-05-06T01:36:36.688Z,9.30
2018-05-06T01:39:05.041Z,9.31
2018-05-06T01:41:34.220Z,9.33
2018-05-06T01:44:02.656Z,9.43
2018-05-06T01:46:31.037Z,9.41
2018-05-06T01:48:59.417Z,9.39
2018-05-06T01:51:27.770Z,9.30
2018-05-06T01:53:56.914Z,9.28
2018-05-06T01:56:25.290Z,9.17
2018-05-06T01:58:53.710Z,9.16
2018-05-06T02:01:22.087Z,9.07
2018-05-06T02:03:50.534Z,9.04
2018-05-06T02:06:18.894Z,9.00
2018-05-06T02:08:48.037Z,9.06
2018-05-06T02:11:16.459Z,9.02
2018-05-06T02:13:44.838Z,9.00
2018-05-06T02:16:13.221Z,8.95
2018-05-06T02:18:41.683Z,8.90
2018-05-06T02:21:10.053Z,8.85
2018-05-06T02:23:38.482Z,8.82
2018-05-06T02:26:06.856Z,8.78
2018-05-06T02:28:35.306Z,8.71
2018-05-06T02:31:03.688Z,8.67
2018-05-06T02:33:32.076Z,8.64
2018-05-06T02:36:00.450Z,8.58
2018-05-06T02:38:28.815Z,8.54
2018-05-06T02:40:57.178Z,8.51
2018-05-06T02:43:26.326Z,8.48
2018-05-06T02:45:54.718Z,8.37
2018-05-06T02:48:23.119Z,8.36
2018-05-06T02:50:51.510Z,8.30
2018-05-06T02:53:19.902Z,8.29
2018-05-06T02:55:49.036Z,8.30
2018-05-06T02:58:17.480Z,8.42
2018-05-06T03:00:46.632Z,8.41
2018-05-06T03:03:14.999Z,8.35
2018-05-06T03:05:43.422Z,8.31
2018-05-06T03:08:11.870Z,8.30
2018-05-06T03:10:40.243Z,8.24
2018-05-06T03:13:08.626Z,8.18
2018-05-06T03:15:37.091Z,8.12
2018-05-06T03:18:06.255Z,8.11
2018-05-06T03:20:34.614Z,8.05
2018-05-06T03:23:02.999Z,8.04
2018-05-06T03:25:31.381Z,8.01
2018-05-06T03:27:59.762Z,8.00
2018-05-06T03:30:28.142Z,7.95
2018-05-06T03:32:56.514Z,7.92
2018-05-06T03:35:24.873Z,7.96
2018-05-06T03:37:54.006Z,7.91
2018-05-06T03:40:22.393Z,7.90
2018-05-06T03:42:50.781Z,7.85
2018-05-06T03:45:19.146Z,7.84
2018-05-06T03:47:47.544Z,7.81
2018-05-06T03:50:16.045Z,7.79
2018-05-06T03:52:45.277Z,7.82
2018-05-06T03:55:13.666Z,7.79
2018-05-06T03:57:59.689Z,7.74
2018-05-06T04:00:50.215Z,7.77
2018-05-06T04:03:18.593Z,7.89
2018-05-06T04:05:47.038Z,7.83
2018-05-06T04:08:16.219Z,7.83
2018-05-06T04:10:45.389Z,7.86
2018-05-06T04:13:13.782Z,7.84
2018-05-06T04:15:42.144Z,7.91
2018-05-06T04:18:10.537Z,7.92
2018-05-06T04:20:38.910Z,7.92
2018-05-06T04:23:07.288Z,7.91
2018-05-06T04:25:35.682Z,7.93
2018-05-06T04:28:04.817Z,7.98
2018-05-06T04:30:33.965Z,8.00
2018-05-06T04:33:02.313Z,8.03
2018-05-06T04:35:38.585Z,8.02
2018-05-06T04:38:06.995Z,8.05
2018-05-06T04:40:35.391Z,8.08
2018-05-06T04:43:03.865Z,8.15
2018-05-06T04:45:32.250Z,8.19
2018-05-06T04:48:01.411Z,8.27
2018-05-06T04:50:29.798Z,8.36
2018-05-06T04:52:58.193Z,8.42
2018-05-06T04:55:26.594Z,8.46
2018-05-06T04:57:55.105Z,8.54
2018-05-06T05:00:23.492Z,8.58
2018-05-06T05:02:51.915Z,8.68
2018-05-06T05:05:20.302Z,8.79
2018-05-06T05:07:48.673Z,8.88
2018-05-06T05:10:17.053Z,8.98
2018-05-06T05:12:46.186Z,9.11
2018-05-06T05:15:14.558Z,9.31
2018-05-06T05:17:43.009Z,9.62
2018-05-06T05:20:12.174Z,9.97
2018-05-06T05:22:40.557Z,10.24
2018-05-06T05:25:08.938Z,10.58
2018-05-06T05:27:37.310Z,10.79
2018-05-06T05:30:05.704Z,10.94
2018-05-06T05:32:34.084Z,11.40
2018-05-06T05:35:02.466Z,11.65
2018-05-06T05:37:30.851Z,11.79
2018-05-06T05:39:59.252Z,11.96
2018-05-06T05:42:27.711Z,12.10
2018-05-06T05:44:56.104Z,12.43
2018-05-06T05:47:24.480Z,12.59
2018-05-06T05:49:52.884Z,12.80
2018-05-06T05:52:21.326Z,13.08
2018-05-06T05:54:49.746Z,13.23
2018-05-06T05:57:20.061Z,13.68
2018-05-06T05:59:48.465Z,13.74
2018-05-06T06:02:16.885Z,14.10
2018-05-06T06:04:45.262Z,14.26
2018-05-06T06:07:13.638Z,14.39
2018-05-06T06:09:42.811Z,14.73
2018-05-06T06:12:11.206Z,14.92
2018-05-06T06:14:40.568Z,15.13
2018-05-06T06:17:09.346Z,15.39
2018-05-06T06:19:43.490Z,15.53
2018-05-06T06:22:12.923Z,15.77
2018-05-06T06:24:42.379Z,15.91
2018-05-06T06:27:10.792Z,16.09
2018-05-06T06:29:39.177Z,16.45
2018-05-06T06:32:07.541Z,16.74
2018-05-06T06:34:36.039Z,16.99
2018-05-06T06:37:04.429Z,17.28
2018-05-06T06:39:32.868Z,17.31
2018-05-06T06:42:11.713Z,17.91
2018-05-06T06:44:41.215Z,18.31
2018-05-06T06:47:09.865Z,18.63
2018-05-06T06:49:39.375Z,19.24
2018-05-06T06:52:07.756Z,19.13
2018-05-06T06:54:40.759Z,19.66
2018-05-06T06:57:10.921Z,20.27
2018-05-06T06:59:39.345Z,20.75
2018-05-06T07:02:12.815Z,20.54
2018-05-06T07:04:41.215Z,20.95
2018-05-06T07:07:09.627Z,21.49
2018-05-06T07:09:40.699Z,21.58
2018-05-06T07:12:09.101Z,21.57
2018-05-06T07:14:39.439Z,22.14
2018-05-06T07:17:17.368Z,21.91
2018-05-06T07:19:46.707Z,22.22
2018-05-06T07:22:15.090Z,22.37
2018-05-06T07:24:43.526Z,23.91
2018-05-06T07:27:11.929Z,24.68
2018-05-06T07:29:40.322Z,25.51
2018-05-06T07:32:09.505Z,24.78
2018-05-06T07:34:38.009Z,25.70
2018-05-06T07:37:07.274Z,26.58
2018-05-06T07:39:36.518Z,26.36
2018-05-06T07:42:07.671Z,26.78
2018-05-06T07:44:36.112Z,26.66
2018-05-06T07:47:04.513Z,27.50
2018-05-06T07:49:33.016Z,27.70
2018-05-06T07:52:01.365Z,27.62
2018-05-06T07:54:30.767Z,27.99
2018-05-06T07:56:59.954Z,28.16
2018-05-06T07:59:28.346Z,27.65
2018-05-06T08:01:59.360Z,28.14
2018-05-06T08:04:27.757Z,28.73
2018-05-06T08:06:56.227Z,28.25
2018-05-06T08:09:24.607Z,27.46
2018-05-06T08:11:52.978Z,26.84
2018-05-06T08:14:21.375Z,26.84
2018-05-06T08:16:49.783Z,29.09
2018-05-06T08:19:24.713Z,28.76
2018-05-06T08:21:53.204Z,29.40
2018-05-06T08:24:21.678Z,28.87
2018-05-06T08:26:50.115Z,29.54
2018-05-06T08:29:19.309Z,29.46
2018-05-06T08:31:48.441Z,30.10
2018-05-06T08:34:16.834Z,29.63
2018-05-06T08:36:45.240Z,29.62
2018-05-06T08:39:13.670Z,29.38
2018-05-06T08:41:42.833Z,29.13
2018-05-06T08:44:11.246Z,30.21
2018-05-06T08:46:39.642Z,29.89
2018-05-06T08:49:09.371Z,30.44
2018-05-06T08:51:37.772Z,28.88
2018-05-06T08:54:06.149Z,28.10
2018-05-06T08:56:34.534Z,28.86
2018-05-06T08:59:02.910Z,28.16
2018-05-06T09:01:31.364Z,29.62
2018-05-06T09:04:00.529Z,31.15
2018-05-06T09:06:29.688Z,30.11
2018-05-06T09:08:58.383Z,29.81
2018-05-06T09:11:26.803Z,29.83
2018-05-06T09:13:55.206Z,31.25
2018-05-06T09:16:23.666Z,31.86
2018-05-06T09:18:52.090Z,30.68
2018-05-06T09:21:20.518Z,29.92
2018-05-06T09:23:49.039Z,27.51
2018-05-06T09:26:17.448Z,29.46
2018-05-06T09:28:46.657Z,29.74
2018-05-06T09:31:15.801Z,31.14
2018-05-06T09:33:44.221Z,29.70
2018-05-06T09:36:12.588Z,31.38
2018-05-06T09:38:41.772Z,29.98
2018-05-06T09:41:10.917Z,30.23
2018-05-06T09:43:40.682Z,30.34
2018-05-06T09:46:09.098Z,31.06
2018-05-06T09:48:37.540Z,29.47
2018-05-06T09:51:05.987Z,28.88
2018-05-06T09:53:35.154Z,28.25
2018-05-06T09:56:03.623Z,29.14
2018-05-06T09:58:32.032Z,30.91
2018-05-06T10:01:00.410Z,30.08
2018-05-06T10:03:28.779Z,30.82
2018-05-06T10:05:57.150Z,31.86
2018-05-06T10:08:25.693Z,30.75
2018-05-06T10:10:54.842Z,31.80
2018-05-06T10:13:23.230Z,32.61
2018-05-06T10:15:51.687Z,31.37
2018-05-06T10:18:20.050Z,32.24
2018-05-06T10:20:49.206Z,31.68
2018-05-06T10:23:17.668Z,30.62
2018-05-06T10:25:46.143Z,32.13
2018-05-06T10:28:14.490Z,33.24
2018-05-06T10:30:43.633Z,32.00
2018-05-06T10:33:12.030Z,32.16
2018-05-06T10:35:40.420Z,30.49
2018-05-06T10:38:08.821Z,31.44
2018-05-06T10:40:37.238Z,31.49
2018-05-06T10:43:06.386Z,31.64
2018-05-06T10:45:34.810Z,30.04
2018-05-06T10:48:04.021Z,31.85
2018-05-06T10:50:33.201Z,29.09
2018-05-06T10:53:01.584Z,30.20
2018-05-06T10:55:29.966Z,31.99
2018-05-06T10:57:58.412Z,32.84
2018-05-06T11:00:26.734Z,33.21
2018-05-06T11:02:55.147Z,30.56
2018-05-06T11:05:24.294Z,31.02
2018-05-06T11:07:52.746Z,31.82
2018-05-06T11:10:21.194Z,34.02
2018-05-06T11:12:49.572Z,31.32
2018-05-06T11:15:17.955Z,31.68
2018-05-06T11:17:46.394Z,32.16
2018-05-06T11:20:14.775Z,31.56
2018-05-06T11:22:43.185Z,31.74
2018-05-06T11:25:11.635Z,31.76
2018-05-06T11:27:40.042Z,31.97
2018-05-06T11:30:08.417Z,32.88
2018-05-06T11:32:37.054Z,32.53
2018-05-06T11:35:06.222Z,31.84
2018-05-06T11:37:34.644Z,32.38
2018-05-06T11:40:03.825Z,33.12
2018-05-06T11:42:32.233Z,32.49
2018-05-06T11:45:01.414Z,32.56
2018-05-06T11:47:29.833Z,31.68
2018-05-06T11:49:58.252Z,32.97
2018-05-06T11:52:26.727Z,32.53
2018-05-06T11:54:55.168Z,31.58
2018-05-06T11:57:24.566Z,30.07
2018-05-06T11:59:53.777Z,30.83
2018-05-06T12:02:22.975Z,32.04
2018-05-06T12:04:51.356Z,31.87
2018-05-06T12:07:19.746Z,32.46
2018-05-06T12:09:48.201Z,32.93
2018-05-06T12:12:16.581Z,33.07
2018-05-06T12:14:45.010Z,32.16
2018-05-06T12:17:14.176Z,32.61
2018-05-06T12:19:42.626Z,32.98
2018-05-06T12:22:11.054Z,31.96
2018-05-06T12:24:39.452Z,32.85
2018-05-06T12:27:08.802Z,32.01
2018-05-06T12:29:37.178Z,32.59
2018-05-06T12:32:05.605Z,32.46
2018-05-06T12:34:34.081Z,31.53
2018-05-06T12:37:02.496Z,31.94
2018-05-06T12:39:31.659Z,32.08
2018-05-06T12:42:00.069Z,31.60
2018-05-06T12:44:28.473Z,31.74
2018-05-06T12:46:57.650Z,32.82
2018-05-06T12:49:26.135Z,32.67
2018-05-06T12:51:54.494Z,32.94
2018-05-06T12:54:22.942Z,31.80
2018-05-06T12:56:51.328Z,32.93
2018-05-06T12:59:19.755Z,33.79
2018-05-06T13:01:48.159Z,33.35
2018-05-06T13:04:16.556Z,33.41
2018-05-06T13:06:45.730Z,34.09
2018-05-06T13:09:14.133Z,34.62
2018-05-06T13:11:43.325Z,33.80
2018-05-06T13:14:11.702Z,33.76
2018-05-06T13:16:40.192Z,34.66
2018-05-06T13:19:08.601Z,33.36
2018-05-06T13:21:37.006Z,32.57
2018-05-06T13:24:05.424Z,32.98
2018-05-06T13:26:33.852Z,33.05
2018-05-06T13:29:03.029Z,32.94
2018-05-06T13:31:31.405Z,33.11
2018-05-06T13:33:59.876Z,32.61
2018-05-06T13:36:28.287Z,32.65
2018-05-06T13:38:56.691Z,31.50
2018-05-06T13:41:25.862Z,32.08
2018-05-06T13:43:54.325Z,32.94
2018-05-06T13:46:23.431Z,32.20
2018-05-06T13:48:52.686Z,34.39
2018-05-06T13:51:21.145Z,33.50
2018-05-06T13:53:50.349Z,33.83
2018-05-06T13:56:19.537Z,31.95
2018-05-06T13:58:47.944Z,32.47
2018-05-06T14:01:17.105Z,32.87
2018-05-06T14:03:45.505Z,33.21
2018-05-06T14:06:13.933Z,34.13
2018-05-06T14:08:42.394Z,32.51
2018-05-06T14:11:11.587Z,33.30
2018-05-06T14:13:40.733Z,33.13
2018-05-06T14:16:09.135Z,33.33
2018-05-06T14:18:37.553Z,33.99
2018-05-06T14:21:05.959Z,35.34
2018-05-06T14:23:34.370Z,35.41
2018-05-06T14:26:02.788Z,34.72
2018-05-06T14:28:31.479Z,36.85
2018-05-06T14:30:59.893Z,36.89
2018-05-06T14:33:29.066Z,35.74
2018-05-06T14:35:57.528Z,35.90
2018-05-06T14:38:25.889Z,36.09
2018-05-06T14:40:54.282Z,37.66
2018-05-06T14:43:22.851Z,38.41
2018-05-06T14:45:51.242Z,36.13
2018-05-06T14:48:19.660Z,35.55
2018-05-06T14:50:48.860Z,36.33
2018-05-06T14:53:17.275Z,34.83
2018-05-06T14:55:46.894Z,35.46
2018-05-06T14:58:16.615Z,36.49
2018-05-06T15:00:45.142Z,35.95
2018-05-06T15:03:14.295Z,33.77
2018-05-06T15:05:43.449Z,34.79
2018-05-06T15:08:12.674Z,33.97
2018-05-06T15:10:42.133Z,33.46
2018-05-06T15:13:10.551Z,32.75
2018-05-06T15:15:39.558Z,32.99
2018-05-06T15:18:08.163Z,34.30
2018-05-06T15:20:36.547Z,33.73
2018-05-06T15:23:05.802Z,33.70
2018-05-06T15:25:34.194Z,35.14
2018-05-06T15:28:02.606Z,34.59
2018-05-06T15:30:31.012Z,33.76
2018-05-06T15:33:00.187Z,32.98
2018-05-06T15:35:28.612Z,34.21
2018-05-06T15:37:57.059Z,32.88
2018-05-06T15:40:25.477Z,32.71
2018-05-06T15:42:53.873Z,32.33
2018-05-06T15:45:22.386Z,31.67
2018-05-06T15:47:50.805Z,31.58
2018-05-06T15:50:19.977Z,31.78
2018-05-06T15:52:48.312Z,31.88
2018-05-06T15:55:16.719Z,31.26
2018-05-06T15:57:45.126Z,30.81
2018-05-06T16:00:13.564Z,30.62
2018-05-06T16:03:10.941Z,31.29
2018-05-06T16:05:39.325Z,31.24
2018-05-06T16:08:07.750Z,30.90
2018-05-06T16:10:36.157Z,31.49
2018-05-06T16:13:04.609Z,30.94
2018-05-06T16:15:32.977Z,31.32
2018-05-06T16:18:01.382Z,31.68
2018-05-06T16:20:29.816Z,32.31
2018-05-06T16:22:58.221Z,31.86
2018-05-06T16:25:27.420Z,31.76
2018-05-06T16:27:55.835Z,32.09
2018-05-06T16:30:24.572Z,31.74
2018-05-06T16:32:52.982Z,31.08
2018-05-06T16:35:21.388Z,31.08
2018-05-06T16:37:49.794Z,30.92
2018-05-06T16:40:18.805Z,29.98
2018-05-06T16:42:47.310Z,29.05
2018-05-06T16:45:15.736Z,28.65
2018-05-06T16:47:44.250Z,28.28
2018-05-06T16:50:13.739Z,27.94
2018-05-06T16:52:42.169Z,27.75
2018-05-06T16:55:10.637Z,27.58
2018-05-06T16:57:39.041Z,27.63
2018-05-06T17:00:08.472Z,27.45
2018-05-06T17:02:36.888Z,27.17
2018-05-06T17:05:05.326Z,27.15
2018-05-06T17:07:34.747Z,27.08
2018-05-06T17:10:03.137Z,26.93
2018-05-06T17:12:31.597Z,26.90
2018-05-06T17:15:00.112Z,27.03
2018-05-06T17:17:28.552Z,26.90
2018-05-06T17:19:56.963Z,26.82
2018-05-06T17:22:25.402Z,26.69
2018-05-06T17:25:06.216Z,26.80
2018-05-06T17:27:34.877Z,26.81
2018-05-06T17:30:03.291Z,26.67
2018-05-06T17:32:31.679Z,26.60
2018-05-06T17:35:05.359Z,26.35
2018-05-06T17:37:36.462Z,26.33
2018-05-06T17:40:05.674Z,26.36
2018-05-06T17:42:35.712Z,26.23
2018-05-06T17:45:05.526Z,26.16
2018-05-06T17:47:34.567Z,26.12
2018-05-06T17:50:03.074Z,26.07
2018-05-06T17:52:34.797Z,25.96
2018-05-06T17:55:03.360Z,25.82
2018-05-06T17:57:33.797Z,25.73
2018-05-06T18:00:02.198Z,25.63
2018-05-06T18:02:30.607Z,25.54
2018-05-06T18:04:59.003Z,25.43
2018-05-06T18:07:27.400Z,25.25
2018-05-06T18:09:56.585Z,25.12
2018-05-06T18:12:24.977Z,25.06
2018-05-06T18:14:53.347Z,24.98
2018-05-06T18:17:21.875Z,25.00
2018-05-06T18:19:50.297Z,25.06
2018-05-06T18:22:18.701Z,24.78
2018-05-06T18:24:47.080Z,24.75
2018-05-06T18:27:15.556Z,24.67
2018-05-06T18:29:43.966Z,24.53
2018-05-06T18:32:12.434Z,24.50
2018-05-06T18:34:40.755Z,24.47
2018-05-06T18:37:09.191Z,24.35
2018-05-06T18:39:38.422Z,24.21
2018-05-06T18:42:08.214Z,24.10
2018-05-06T18:44:36.644Z,23.91
2018-05-06T18:47:05.150Z,23.76
2018-05-06T18:49:34.289Z,23.47
2018-05-06T18:52:02.684Z,23.39
2018-05-06T18:54:31.116Z,23.20
2018-05-06T18:56:59.555Z,22.97
2018-05-06T18:59:28.367Z,22.97
2018-05-06T19:01:57.588Z,22.87
2018-05-06T19:04:26.957Z,22.75
2018-05-06T19:06:56.160Z,22.69
2018-05-06T19:09:25.346Z,22.49
2018-05-06T19:11:53.750Z,22.53
2018-05-06T19:14:22.315Z,22.46
2018-05-06T19:16:50.753Z,22.32
2018-05-06T19:19:19.231Z,22.34
2018-05-06T19:21:47.747Z,22.25
2018-05-06T19:24:16.157Z,22.20
2018-05-06T19:26:44.638Z,22.17
2018-05-06T19:29:13.004Z,22.19
2018-05-06T19:31:42.209Z,22.20
2018-05-06T19:34:10.644Z,21.98
2018-05-06T19:36:39.852Z,22.01
2018-05-06T19:39:08.349Z,21.91
2018-05-06T19:41:36.756Z,21.81
2018-05-06T19:44:05.183Z,21.84
2018-05-06T19:46:33.589Z,21.66
2018-05-06T19:49:02.142Z,21.52
2018-05-06T19:51:30.583Z,21.48
2018-05-06T19:53:59.026Z,21.38
2018-05-06T19:56:28.201Z,21.27
2018-05-06T19:58:56.600Z,21.18
2018-05-06T20:01:25.015Z,21.05
2018-05-06T20:03:53.427Z,21.01
2018-05-06T20:06:21.845Z,20.82
2018-05-06T20:08:50.464Z,20.72
2018-05-06T20:11:19.639Z,20.62
2018-05-06T20:13:48.037Z,20.35
2018-05-06T20:16:17.272Z,20.38
2018-05-06T20:18:45.691Z,20.34
2018-05-06T20:21:14.175Z,20.44
2018-05-06T20:23:43.349Z,20.26
2018-05-06T20:26:11.990Z,20.19
2018-05-06T20:28:40.409Z,20.04
2018-05-06T20:31:08.839Z,19.98
2018-05-06T20:33:37.250Z,20.08
2018-05-06T20:36:06.415Z,20.07
2018-05-06T20:38:34.843Z,20.05
2018-05-06T20:41:04.102Z,19.88
2018-05-06T20:43:32.503Z,19.71
2018-05-06T20:46:00.908Z,19.47
2018-05-06T20:48:30.098Z,19.17
2018-05-06T20:50:58.507Z,18.87
2018-05-06T20:53:26.915Z,18.61
2018-05-06T20:55:55.327Z,18.51
2018-05-06T20:58:23.750Z,18.35
2018-05-06T21:00:52.943Z,18.27
2018-05-06T21:03:22.126Z,18.22
2018-05-06T21:05:51.583Z,18.05
2018-05-06T21:08:20.011Z,17.85
2018-05-06T21:10:48.427Z,17.74
2018-05-06T21:13:18.463Z,17.59
2018-05-06T21:15:46.879Z,17.48
2018-05-06T21:18:15.372Z,17.30
2018-05-06T21:20:43.688Z,17.21
2018-05-06T21:23:12.290Z,17.11
2018-05-06T21:25:40.750Z,17.03
2018-05-06T21:28:10.039Z,16.90
2018-05-06T21:30:38.604Z,16.77
2018-05-06T21:33:07.697Z,16.69
2018-05-06T21:35:36.852Z,16.65
2018-05-06T21:38:05.303Z,16.50
2018-05-06T21:40:33.840Z,16.40
2018-05-06T21:43:03.232Z,16.28
2018-05-06T21:45:32.596Z,16.18
2018-05-06T21:48:01.014Z,16.09
2018-05-06T21:50:29.433Z,15.99
2018-05-06T21:52:57.854Z,15.89
2018-05-06T21:55:26.472Z,15.81
2018-05-06T21:57:55.670Z,15.68
2018-05-06T22:00:24.085Z,15.58
2018-05-06T22:02:52.461Z,15.53
2018-05-06T22:05:20.909Z,15.45
2018-05-06T22:07:49.302Z,15.49
2018-05-06T22:10:17.699Z,15.33
2018-05-06T22:12:46.896Z,15.22
2018-05-06T22:15:17.003Z,15.11
2018-05-06T22:17:45.421Z,15.02
2018-05-06T22:20:14.507Z,14.92
2018-05-06T22:22:43.072Z,14.86
2018-05-06T22:25:11.813Z,14.82
2018-05-06T22:27:40.227Z,14.73
2018-05-06T22:30:08.651Z,14.75
2018-05-06T22:32:37.869Z,14.68
2018-05-06T22:35:06.429Z,14.61
2018-05-06T22:37:35.953Z,14.56
2018-05-06T22:40:05.132Z,14.57
2018-05-06T22:42:33.534Z,14.55
2018-05-06T22:45:03.088Z,14.41
2018-05-06T22:47:31.542Z,14.35
2018-05-06T22:50:00.719Z,14.29
2018-05-06T22:52:30.247Z,14.26
2018-05-06T22:54:59.441Z,14.19
2018-05-06T22:57:28.671Z,14.14
2018-05-06T22:59:57.101Z,14.03
2018-05-06T23:02:25.630Z,14.01
2018-05-06T23:04:54.051Z,13.98
2018-05-06T23:07:22.432Z,13.89
2018-05-06T23:09:50.851Z,13.82
2018-05-06T23:12:20.000Z,13.74
2018-05-06T23:14:48.395Z,13.72
2018-05-06T23:17:16.822Z,13.68
2018-05-06T23:19:45.993Z,13.61
2018-05-06T23:22:14.446Z,13.63
2018-05-06T23:24:43.762Z,13.72
2018-05-06T23:27:12.238Z,13.67
2018-05-06T23:29:40.643Z,13.62
2018-05-06T23:32:09.028Z,13.63
2018-05-06T23:34:37.554Z,13.59
2018-05-06T23:37:06.715Z,13.60
2018-05-06T23:39:35.175Z,13.54
2018-05-06T23:42:03.576Z,13.51
2018-05-06T23:44:31.963Z,13.50
2018-05-06T23:47:00.386Z,13.40
2018-05-06T23:49:29.602Z,13.39
2018-05-06T23:51:57.975Z,13.35
2018-05-06T23:54:27.142Z,13.29
2018-05-06T23:56:55.550Z,13.29
2018-05-06T23:59:24.669Z,13.25
